• Join FlightAware (Why Join?)
  • Login
  • US Flag 
03:57AM EST


 

Airport Tracker/Info


-or-


 

Live Flight TrackerFlight Track Log ✈ N717AN ✈ 29-Apr-2013 ✈ SBGR / GRU - KJFK

Flight Track Log - Related Links

Times and Time Zones

All times are in EDT time to prevent confusion due to time zone crossing. See the N717AN flight status page for this flight to view local times or setup timezone preferences in your user account.

Time Position Orientation Groundspeed Altitude Reporting Facility
EDT Latitude Longitude Course Direction KTS MPH feet Rate Location/Type
08:26PM -23.4230 -46.4410 72° East 200 230 2,800  Level FlightAware
08:27PM -23.4150 -46.4110 74° East 212 244 3,900 1,380 Climbing FlightAware
08:27PM -23.4060 -46.3840 70° East 249 287 4,100 1,080 Climbing FlightAware
08:28PM -23.3950 -46.3480 72° East 273 314 4,900 1,860 Climbing FlightAware
08:28PM -23.3820 -46.3030 73° East 288 331 6,000 2,160 Climbing FlightAware
08:29PM -23.3660 -46.2720 61° Northeast 294 338 6,900 2,220 Climbing FlightAware
08:29PM -23.3490 -46.2570 39° Northeast 302 348 7,500 2,400 Climbing FlightAware
08:29PM -23.3090 -46.2420 19° North 298 343 8,700 2,400 Climbing FlightAware
08:30PM -23.2760 -46.2320 16° North 298 343 9,700 1,800 Climbing FlightAware
08:31PM -23.2120 -46.2110 17° North 324 373 10,800 1,380 Climbing FlightAware
08:31PM -23.1540 -46.1920 17° North 352 405 11,700 1,560 Climbing FlightAware
08:32PM -23.0810 -46.1750 12° North 384 442 12,900 2,040 Climbing FlightAware
08:32PM -23.0260 -46.1820 353° North 390 449 14,100 2,460 Climbing FlightAware
08:33PM -22.9540 -46.1960 350° North 395 455 15,800 2,520 Climbing FlightAware
08:34PM -22.8720 -46.2100 351° North 390 449 17,700 2,160 Climbing FlightAware
08:34PM -22.7980 -46.2230 351° North 411 473 18,900 1,920 Climbing FlightAware
08:35PM -22.7120 -46.2380 351° North 421 484 20,500 1,800 Climbing FlightAware
08:36PM -22.6340 -46.2510 351° North 439 505 21,500 1,800 Climbing FlightAware
08:37PM -22.5540 -46.2650 351° North 440 506 22,900 1,620 Climbing FlightAware
08:37PM -22.4600 -46.2810 351° North 452 520 23,800 1,320 Climbing FlightAware
08:38PM -22.3730 -46.2960 351° North 469 540 24,800 1,380 Climbing FlightAware
08:39PM -22.2860 -46.3110 351° North 474 545 25,700 1,380 Climbing FlightAware
08:39PM -22.1850 -46.3280 351° North 491 565 26,800 1,380 Climbing FlightAware
08:40PM -22.0950 -46.3430 351° North 490 564 27,700 1,320 Climbing FlightAware
08:42PM -21.8720 -46.3850 350° North 506 582 29,900 1,020 Climbing FlightAware
08:43PM -21.6700 -46.4170 352° North 516 594 31,000 480 Climbing FlightAware
08:44PM -21.5740 -46.4330 351° North 517 595 31,000  Level FlightAware
08:44PM -21.4790 -46.4480 352° North 517 595 31,000  Level FlightAware
08:45PM -21.3860 -46.4640 351° North 506 582 31,000  Level FlightAware
08:46PM -21.2780 -46.4810 352° North 502 578 31,000  Level FlightAware
08:47PM -21.1720 -46.4990 351° North 501 577 31,000  Level FlightAware
08:47PM -21.0810 -46.5130 352° North 501 577 31,000  Level FlightAware
08:48PM -20.9730 -46.5310 351° North 508 585 31,000  Level FlightAware
08:49PM -20.8850 -46.5450 352° North 509 586 31,000  Level FlightAware
08:49PM -20.7820 -46.5620 351° North 511 588 31,000  Level FlightAware
08:50PM -20.6530 -46.5830 351° North 510 587 31,000 60 Level FlightAware
08:51PM -20.5580 -46.5980 352° North 509 586 31,100 1,080 Climbing FlightAware
08:52PM -20.4520 -46.6170 350° North 501 577 32,600 1,140 Climbing FlightAware
08:53PM -20.3270 -46.6400 350° North 496 571 33,000 120 Climbing FlightAware
08:54PM -20.1000 -46.6810 350° North 497 572 33,000  Level FlightAware
08:55PM -19.9780 -46.7030 350° North 497 572 33,000  Level FlightAware
08:56PM -19.8580 -46.7250 350° North 497 572 33,000  Level FlightAware
08:57PM -19.7220 -46.7490 351° North 498 573 33,000  Level FlightAware
08:58PM -19.6350 -46.7650 350° North 498 573 33,000  Level FlightAware
08:58PM -19.5540 -46.7800 350° North 499 574 33,000  Level FlightAware
08:59PM -19.4280 -46.8020 351° North 501 577 33,000  Level FlightAware
09:00PM -19.2810 -46.8290 350° North 501 577 33,000  Level FlightAware
09:01PM -19.1560 -46.8500 351° North 503 579 33,000  Level FlightAware
09:02PM -19.0280 -46.8690 352° North 504 580 33,000  Level FlightAware
09:03PM -18.9350 -46.8840 351° North 504 580 33,000  Level FlightAware
09:04PM -18.8470 -46.8990 351° North 504 580 33,000  Level FlightAware
09:04PM -18.7690 -46.9120 351° North 504 580 33,000  Level FlightAware
09:05PM -18.6400 -46.9280 353° North 504 580 33,000  Level FlightAware
09:06PM -18.5160 -46.9440 353° North 504 580 33,000  Level FlightAware
09:07PM -18.4380 -46.9540 353° North 504 580 33,000  Level FlightAware
09:07PM -18.3390 -46.9670 353° North 504 580 33,000  Level FlightAware
09:08PM -18.2610 -46.9770 353° North 504 580 33,000  Level FlightAware
09:09PM -18.1820 -46.9870 353° North 504 580 33,000  Level FlightAware
09:09PM -18.1030 -46.9970 353° North 504 580 33,000  Level FlightAware
09:10PM -18.0050 -47.0100 353° North 504 580 33,000  Level FlightAware
09:11PM -17.9260 -47.0200 353° North 504 580 33,000  Level FlightAware
09:12PM -17.8480 -47.0300 353° North 504 580 33,000  Level FlightAware
09:12PM -17.7690 -47.0400 353° North 504 580 33,000  Level FlightAware
09:13PM -17.6710 -47.0530 353° North 504 580 33,000  Level FlightAware
09:14PM -17.5920 -47.0630 353° North 504 580 33,000  Level FlightAware
09:14PM -17.5130 -47.0730 353° North 504 580 33,000  Level FlightAware
09:15PM -17.4340 -47.0830 353° North 504 580 33,000  Level FlightAware
09:18PM -17.1471 -47.2071 338° Northwest  Level Estimated
09:19PM -17.0307 -47.2573 338° Northwest  Level Estimated
09:20PM -16.9144 -47.3075 338° Northwest  Level Estimated
09:20PM -16.8470 -47.7690 338° Northwest 33,000  Level FlightAware
09:20PM -16.8170 -47.7840 334° Northwest 480 552 33,000  Level FlightAware
09:20PM -16.7360 -47.8240 335° Northwest 480 552 33,000  Level FlightAware
09:21PM -16.6550 -47.8640 335° Northwest 480 552 33,000  Level FlightAware
09:22PM -16.5650 -47.9080 335° Northwest 479 551 33,000  Level FlightAware
09:23PM -16.4860 -47.9480 334° Northwest 479 551 33,000  Level FlightAware
09:23PM -16.3950 -47.9930 335° Northwest 479 551 33,000  Level FlightAware
09:24PM -16.3140 -48.0320 335° Northwest 480 552 33,000 300 Level FlightAware
09:25PM -16.2220 -48.0780 334° Northwest 480 552 33,500 660 Climbing FlightAware
09:25PM -16.1480 -48.1140 335° Northwest 476 548 34,000 360 Climbing FlightAware
09:26PM -16.0630 -48.1560 335° Northwest 475 547 34,000  Level FlightAware
09:27PM -15.9720 -48.2010 335° Northwest 474 545 34,000  Level FlightAware
09:27PM -15.8920 -48.2400 335° Northwest 475 547 34,000  Level FlightAware
09:28PM -15.8040 -48.2830 335° Northwest 473 544 34,000  Level FlightAware
09:29PM -15.7250 -48.3220 335° Northwest 475 547 34,000  Level FlightAware
09:30PM -15.6340 -48.3660 335° Northwest 473 544 34,000  Level FlightAware
09:30PM -15.5540 -48.4050 335° Northwest 472 543 34,000  Level FlightAware
09:31PM -15.4740 -48.4450 334° Northwest 473 544 34,000  Level FlightAware
09:32PM -15.3960 -48.4830 335° Northwest 475 547 34,000  Level FlightAware
09:32PM -15.3060 -48.5270 335° Northwest 474 545 34,000  Level FlightAware
09:33PM -15.2260 -48.5660 335° Northwest 473 544 34,000  Level FlightAware
09:34PM -15.1350 -48.6100 335° Northwest 473 544 34,000  Level FlightAware
09:34PM -15.0570 -48.6480 335° Northwest 473 544 34,000  Level FlightAware
09:35PM -14.9670 -48.6910 335° Northwest 474 545 34,000  Level FlightAware
09:36PM -14.8980 -48.7250 335° Northwest 475 547 34,000  Level FlightAware
09:37PM -14.8110 -48.7670 335° Northwest 476 548 34,000  Level FlightAware
09:37PM -14.7380 -48.8030 335° Northwest 476 548 34,000  Level FlightAware
09:38PM -14.6390 -48.8510 335° Northwest 477 549 34,000  Level FlightAware
09:39PM -14.5480 -48.8950 335° Northwest 478 550 34,000  Level FlightAware
09:40PM -14.4640 -48.9380 334° Northwest 478 550 34,000  Level FlightAware
09:40PM -14.3960 -48.9720 334° Northwest 478 550 34,000  Level FlightAware
09:41PM -14.3290 -49.0060 334° Northwest 478 550 34,000  Level FlightAware
09:42PM -14.2610 -49.0400 334° Northwest 478 550 34,000  Level FlightAware
09:42PM -14.1940 -49.0740 334° Northwest 478 550 34,000  Level FlightAware
09:43PM -14.1090 -49.1160 334° Northwest 478 550 34,000  Level FlightAware
09:44PM -14.0410 -49.1500 334° Northwest 478 550 34,000  Level FlightAware
09:44PM -13.9740 -49.1840 334° Northwest 478 550 34,000  Level FlightAware
09:45PM -13.9060 -49.2180 334° Northwest 478 550 34,000  Level FlightAware
09:46PM -13.8390 -49.2520 334° Northwest 478 550 34,000  Level FlightAware
09:47PM -13.7540 -49.2950 334° Northwest 478 550 34,000  Level FlightAware
09:47PM -13.6870 -49.3290 334° Northwest 478 550 34,000  Level FlightAware
09:48PM -13.6190 -49.3620 335° Northwest 478 550 34,000  Level FlightAware
09:51PM -13.3204 -49.4829 338° Northwest  Level Estimated
09:52PM -13.2033 -49.5303 339° North  Level Estimated
09:53PM -13.0862 -49.5776 339° North  Level Estimated
09:54PM -12.9691 -49.6249 339° North  Level Estimated
09:55PM -12.8519 -49.6721 339° North  Level Estimated
09:56PM -12.7348 -49.7193 339° North  Level Estimated
09:57PM -12.6176 -49.7664 339° North  Level Estimated
09:58PM -12.5005 -49.8135 339° North  Level Estimated
09:59PM -12.3833 -49.8605 339° North  Level Estimated
10:00PM -12.2661 -49.9075 339° North  Level Estimated
10:01PM -12.1489 -49.9545 339° North  Level Estimated
10:02PM -12.0317 -50.0014 339° North  Level Estimated
10:03PM -11.9145 -50.0483 339° North  Level Estimated
10:04PM -11.7973 -50.0951 339° North  Level Estimated
10:04PM -11.4890 -50.3530 339° North 480 552 34,000  Level FlightAware
10:05PM -11.3810 -50.4040 335° Northwest 480 552 34,000  Level FlightAware
10:06PM -11.3120 -50.4370 335° Northwest 480 552 34,000  Level FlightAware
10:06PM -11.2080 -50.4850 336° Northwest 479 551 34,000  Level FlightAware
10:07PM -11.1280 -50.5230 335° Northwest 479 551 34,000  Level FlightAware
10:08PM -11.2050 -50.4870 155° Southeast 480 552 34,000  Level FlightAware
10:08PM -10.9900 -50.5880 335° Northwest 481 554 34,000  Level FlightAware
10:09PM -10.9070 -50.6270 335° Northwest 481 554 34,000  Level FlightAware
10:10PM -10.8390 -50.6590 335° Northwest 481 554 34,000  Level FlightAware
10:11PM -10.7700 -50.6920 335° Northwest 481 554 34,000  Level FlightAware
10:11PM -10.7020 -50.7240 335° Northwest 481 554 34,000  Level FlightAware
10:12PM -10.6160 -50.7650 335° Northwest 481 554 34,000  Level FlightAware
10:13PM -10.9470 -50.6080 155° Southeast 479 551 34,000  Level FlightAware
10:13PM -10.8790 -50.6400 335° Northwest 479 551 34,000  Level FlightAware
10:14PM -10.9900 -50.5880 155° Southeast 479 551 34,000  Level FlightAware
10:15PM -10.9300 -50.6200 332° Northwest 479 551 34,000  Level FlightAware
10:16PM -10.1030 -51.0120 335° Northwest 478 550 34,000  Level FlightAware
10:16PM -10.0360 -51.0470 333° Northwest 478 550 34,000  Level FlightAware
10:17PM -10.1450 -50.9900 153° Southeast 34,000  Level FlightAware
10:19PM -9.9316 -51.0733 339° North  Level Estimated
10:20PM -9.8131 -51.1195 339° North  Level Estimated
10:21PM -9.6945 -51.1657 339° North  Level Estimated
10:22PM -9.5760 -51.2119 339° North  Level Estimated
10:23PM -9.4574 -51.2580 339° North  Level Estimated
10:24PM -9.3389 -51.3041 339° North  Level Estimated
10:25PM -9.2203 -51.3501 339° North  Level Estimated
10:26PM -9.1017 -51.3962 339° North  Level Estimated
10:27PM -8.9831 -51.4422 339° North  Level Estimated
10:28PM -8.8645 -51.4881 339° North  Level Estimated
10:29PM -8.7460 -51.5341 339° North  Level Estimated
10:30PM -8.6274 -51.5800 339° North  Level Estimated
10:31PM -8.5087 -51.6259 339° North  Level Estimated
10:32PM -8.3901 -51.6717 339° North  Level Estimated
10:33PM -8.2715 -51.7176 339° North  Level Estimated
10:34PM -8.1529 -51.7634 339° North  Level Estimated
10:35PM -8.0343 -51.8091 339° North  Level Estimated
10:36PM -7.9156 -51.8549 339° North  Level Estimated
10:37PM -7.7970 -51.9006 339° North  Level Estimated
10:38PM -7.6784 -51.9463 339° North  Level Estimated
10:39PM -7.5597 -51.9920 339° North  Level Estimated
10:40PM -7.4411 -52.0376 339° North  Level Estimated
10:41PM -7.3224 -52.0832 339° North  Level Estimated
10:42PM -7.2037 -52.1288 339° North  Level Estimated
10:43PM -7.0851 -52.1744 339° North  Level Estimated
10:44PM -6.9664 -52.2199 339° North  Level Estimated
10:45PM -6.8477 -52.2654 339° North  Level Estimated
10:46PM -6.7291 -52.3110 339° North  Level Estimated
10:47PM -6.6104 -52.3564 339° North  Level Estimated
10:48PM -6.4917 -52.4019 339° North  Level Estimated
10:49PM -6.3730 -52.4473 339° North  Level Estimated
10:50PM -6.2543 -52.4927 339° North  Level Estimated
10:51PM -6.1356 -52.5381 339° North  Level Estimated
10:52PM -6.0169 -52.5835 339° North  Level Estimated
10:53PM -5.8982 -52.6288 339° North  Level Estimated
10:54PM -5.7795 -52.6742 339° North  Level Estimated
10:55PM -5.6608 -52.7195 339° North  Level Estimated
10:56PM -5.5421 -52.7648 339° North  Level Estimated
10:57PM -5.4233 -52.8101 339° North  Level Estimated
10:58PM -5.3046 -52.8553 339° North  Level Estimated
10:59PM -5.1859 -52.9006 339° North  Level Estimated
11:00PM -5.0672 -52.9458 339° North  Level Estimated
11:01PM -4.9484 -52.9910 339° North  Level Estimated
11:02PM -4.8297 -53.0362 339° North  Level Estimated
11:03PM -4.7109 -53.0814 339° North  Level Estimated
11:04PM -4.5922 -53.1265 339° North  Level Estimated
11:05PM -4.4735 -53.1717 339° North  Level Estimated
11:06PM -4.3547 -53.2168 339° North  Level Estimated
11:07PM -4.2360 -53.2620 339° North  Level Estimated
11:08PM -4.1172 -53.3070 339° North  Level Estimated
11:09PM -3.9985 -53.3521 339° North  Level Estimated
11:10PM -3.8797 -53.3972 339° North  Level Estimated
11:11PM -3.7609 -53.4423 339° North  Level Estimated
11:12PM -3.6422 -53.4873 339° North  Level Estimated
11:13PM -3.5234 -53.5324 339° North  Level Estimated
11:14PM -3.4046 -53.5774 339° North  Level Estimated
11:15PM -3.2859 -53.6224 339° North  Level Estimated
11:16PM -3.1671 -53.6674 339° North  Level Estimated
11:17PM -3.0483 -53.7124 339° North  Level Estimated
11:18PM -2.9296 -53.7574 339° North  Level Estimated
11:19PM -2.8108 -53.8024 339° North  Level Estimated
11:20PM -2.6920 -53.8474 339° North  Level Estimated
11:21PM -2.5732 -53.8923 339° North  Level Estimated
11:22PM -2.4544 -53.9373 339° North  Level Estimated
11:23PM -2.3357 -53.9822 339° North  Level Estimated
11:24PM -2.2169 -54.0272 339° North  Level Estimated
11:25PM -2.0981 -54.0721 339° North  Level Estimated
11:26PM -1.9793 -54.1170 339° North  Level Estimated
11:27PM -1.8605 -54.1619 339° North  Level Estimated
11:28PM -1.7417 -54.2068 339° North  Level Estimated
11:29PM -1.6229 -54.2518 339° North  Level Estimated
11:30PM -1.5042 -54.2966 339° North  Level Estimated
11:31PM -1.3854 -54.3415 339° North  Level Estimated
11:32PM -1.2672 -54.3862 339° North  Level Estimated
11:33PM -1.1491 -54.4308 339° North  Level Estimated
11:34PM -1.0309 -54.4755 339° North  Level Estimated
11:35PM -0.9128 -54.5201 339° North  Level Estimated
11:36PM -0.7946 -54.5647 339° North  Level Estimated
11:37PM -0.6764 -54.6094 339° North  Level Estimated
11:38PM -0.5583 -54.6540 339° North  Level Estimated
11:39PM -0.4401 -54.6986 339° North  Level Estimated
11:40PM -0.3219 -54.7433 339° North  Level Estimated
11:41PM -0.2038 -54.7879 339° North  Level Estimated
11:42PM -0.0856 -54.8325 339° North  Level Estimated
11:43PM 0.0325 -54.8771 339° North  Level Estimated
11:44PM 0.1507 -54.9217 339° North  Level Estimated
11:45PM 0.2688 -54.9664 339° North  Level Estimated
11:46PM 0.3870 -55.0110 339° North  Level Estimated
11:47PM 0.5052 -55.0556 339° North  Level Estimated
11:48PM 0.6233 -55.1003 339° North  Level Estimated
11:49PM 0.7415 -55.1449 339° North  Level Estimated
11:50PM 0.8597 -55.1895 339° North  Level Estimated
11:51PM 0.9778 -55.2341 339° North  Level Estimated
11:52PM 1.0960 -55.2788 339° North  Level Estimated
11:53PM 1.2141 -55.3234 339° North  Level Estimated
11:54PM 1.3323 -55.3681 339° North  Level Estimated
11:55PM 1.4504 -55.4127 339° North  Level Estimated
11:56PM 1.5686 -55.4574 339° North  Level Estimated
11:57PM 1.6867 -55.5020 339° North  Level Estimated
11:58PM 1.8049 -55.5467 339° North  Level Estimated
11:59PM 1.9230 -55.5914 339° North  Level Estimated
12:00AM 2.0412 -55.6361 339° North  Level Estimated
12:01AM 2.1593 -55.6807 339° North  Level Estimated
12:02AM 2.2775 -55.7254 339° North  Level Estimated
12:03AM 2.3956 -55.7701 339° North  Level Estimated
12:04AM 2.5138 -55.8148 339° North  Level Estimated
12:05AM 2.6319 -55.8596 339° North  Level Estimated
12:06AM 2.7500 -55.9043 339° North  Level Estimated
12:07AM 2.8682 -55.9490 339° North  Level Estimated
12:08AM 2.9863 -55.9937 339° North  Level Estimated
12:09AM 3.1044 -56.0385 339° North  Level Estimated
12:10AM 3.2226 -56.0832 339° North  Level Estimated
12:11AM 3.3407 -56.1280 339° North  Level Estimated
12:12AM 3.4588 -56.1728 339° North  Level Estimated
12:13AM 3.5770 -56.2176 339° North  Level Estimated
12:14AM 3.6951 -56.2624 339° North  Level Estimated
12:15AM 3.8132 -56.3072 339° North  Level Estimated
12:16AM 3.9313 -56.3520 339° North  Level Estimated
12:17AM 4.0494 -56.3969 339° North  Level Estimated
12:18AM 4.1676 -56.4417 339° North  Level Estimated
12:19AM 4.2857 -56.4866 339° North  Level Estimated
12:20AM 4.4038 -56.5315 339° North  Level Estimated
12:21AM 4.5219 -56.5764 339° North  Level Estimated
12:22AM 4.6400 -56.6213 339° North  Level Estimated
12:23AM 4.7581 -56.6662 339° North  Level Estimated
12:24AM 4.8762 -56.7112 339° North  Level Estimated
12:25AM 4.9943 -56.7561 339° North  Level Estimated
12:26AM 5.1124 -56.8011 339° North  Level Estimated
12:27AM 5.2305 -56.8461 339° North  Level Estimated
12:28AM 5.3485 -56.8911 339° North  Level Estimated
12:29AM 5.4666 -56.9361 339° North  Level Estimated
12:30AM 5.5847 -56.9812 339° North  Level Estimated
12:31AM 5.7028 -57.0262 339° North  Level Estimated
12:32AM 5.8209 -57.0713 339° North  Level Estimated
12:33AM 5.9389 -57.1164 339° North  Level Estimated
12:34AM 6.0570 -57.1615 339° North  Level Estimated
12:35AM 6.1750 -57.2066 339° North  Level Estimated
12:36AM 6.2931 -57.2518 339° North  Level Estimated
12:37AM 6.4112 -57.2970 339° North  Level Estimated
12:38AM 6.5292 -57.3422 339° North  Level Estimated
12:39AM 6.6473 -57.3874 339° North  Level Estimated
12:40AM 6.7653 -57.4327 339° North  Level Estimated
12:41AM 6.8833 -57.4779 339° North  Level Estimated
12:42AM 7.0014 -57.5232 339° North  Level Estimated
12:43AM 7.1194 -57.5685 339° North  Level Estimated
12:44AM 7.2374 -57.6138 339° North  Level Estimated
12:45AM 7.3554 -57.6592 339° North  Level Estimated
12:46AM 7.4735 -57.7046 339° North  Level Estimated
12:47AM 7.5915 -57.7500 339° North  Level Estimated
12:48AM 7.7095 -57.7954 339° North  Level Estimated
12:49AM 7.8275 -57.8409 339° North  Level Estimated
12:50AM 7.9455 -57.8863 339° North  Level Estimated
12:51AM 8.0635 -57.9319 339° North  Level Estimated
12:52AM 8.1815 -57.9774 339° North  Level Estimated
12:53AM 8.2994 -58.0229 339° North  Level Estimated
12:54AM 8.4174 -58.0685 339° North  Level Estimated
12:55AM 8.5354 -58.1141 339° North  Level Estimated
12:56AM 8.6534 -58.1598 339° North  Level Estimated
12:57AM 8.7713 -58.2054 339° North  Level Estimated
12:58AM 8.8893 -58.2511 339° North  Level Estimated
12:59AM 9.0072 -58.2969 339° North  Level Estimated
01:00AM 9.1252 -58.3426 339° North  Level Estimated
01:01AM 9.2431 -58.3884 339° North  Level Estimated
01:02AM 9.3610 -58.4342 339° North  Level Estimated
01:03AM 9.4790 -58.4801 339° North  Level Estimated
01:04AM 9.5969 -58.5260 339° North  Level Estimated
01:05AM 9.7148 -58.5719 339° North  Level Estimated
01:06AM 9.8327 -58.6179 339° North  Level Estimated
01:07AM 9.9506 -58.6638 339° North  Level Estimated
01:08AM 10.0685 -58.7098 339° North  Level Estimated
01:09AM 10.1864 -58.7559 339° North  Level Estimated
01:10AM 10.3102 -58.8043 339° North  Level Estimated
01:11AM 10.4340 -58.8527 339° North  Level Estimated
01:12AM 10.5578 -58.9012 339° North  Level Estimated
01:13AM 10.6816 -58.9497 339° North  Level Estimated
01:14AM 10.8054 -58.9983 339° North  Level Estimated
01:15AM 10.9291 -59.0468 339° North  Level Estimated
01:16AM 11.0459 -59.0927 339° North  Level Estimated
01:17AM 11.1627 -59.1387 339° North  Level Estimated
01:18AM 11.2795 -59.1846 339° North  Level Estimated
01:19AM 11.3962 -59.2306 339° North  Level Estimated
01:20AM 11.5130 -59.2767 339° North  Level Estimated
01:21AM 11.6298 -59.3228 339° North  Level Estimated
01:22AM 11.7465 -59.3689 339° North  Level Estimated
01:23AM 11.8632 -59.4150 339° North  Level Estimated
01:24AM 11.9800 -59.4612 339° North  Level Estimated
01:25AM 12.0967 -59.5075 339° North  Level Estimated
01:26AM 12.2134 -59.5538 339° North  Level Estimated
01:27AM 12.3301 -59.6001 339° North  Level Estimated
01:28AM 12.4468 -59.6464 339° North  Level Estimated
01:28AM 12.1420 -62.3970 339° North 487 560 34,000  Level FlightAware
01:29AM 12.5635 -59.6928 339° North  Level Estimated
01:29AM 12.2520 -62.4630 330° Northwest 488 562 34,000  Level FlightAware
01:29AM 12.3560 -62.5260 329° Northwest 487 560 34,000  Level FlightAware
01:30AM 12.4310 -62.5720 329° Northwest 487 560 34,000  Level FlightAware
01:31AM 12.5070 -62.6180 329° Northwest 487 560 34,000  Level FlightAware
01:32AM 12.5980 -62.6730 329° Northwest 486 559 34,000  Level FlightAware
01:32AM 12.6930 -62.7310 329° Northwest 485 558 34,000  Level FlightAware
01:33AM 12.7970 -62.7930 330° Northwest 476 548 34,000  Level FlightAware
01:34AM 12.8500 -62.8260 329° Northwest 472 543 34,000  Level FlightAware
01:35AM 12.9480 -62.8850 330° Northwest 469 540 34,000  Level FlightAware
01:35AM 13.0120 -62.9240 329° Northwest 466 536 34,000  Level FlightAware
01:37AM 13.1810 -63.0270 329° Northwest 463 533 34,000  Level FlightAware
01:38AM 13.2610 -63.0760 329° Northwest 462 532 34,000  Level FlightAware
01:38AM 13.3710 -63.1430 329° Northwest 463 533 34,000  Level FlightAware
01:39AM 13.3680 -63.1410 147° Southeast 463 533 34,000  Level FlightAware
01:40AM 13.4300 -63.1800 329° Northwest 463 533 34,000  Level FlightAware
01:43AM 13.7255 -63.2722 343° North  Level Estimated
01:43AM 13.8940 -63.4640 343° North 466 536 34,000  Level FlightAware
01:46AM 14.1798 -63.5524 343° North  Level Estimated
01:46AM 14.2450 -63.6790 343° North 465 535 34,000  Level FlightAware
01:47AM 14.2996 -63.5896 343° North  Level Estimated
01:49AM 14.4849 -63.8230 330° Northwest  Level FlightAware Approximate
01:50AM 14.5931 -63.8880 330° Northwest  Level FlightAware Approximate
01:51AM 14.7013 -63.9531 330° Northwest  Level FlightAware Approximate
01:51AM 14.7740 -64.0060 330° Northwest 463 533 34,000  Level FlightAware
01:52AM 14.8810 -64.0730 329° Northwest 464 534 34,000  Level FlightAware
01:53AM 14.9510 -64.1160 329° Northwest 463 533 34,000  Level FlightAware
01:54AM 15.0890 -64.2030 329° Northwest 463 533 34,000  Level FlightAware
01:55AM 15.1500 -64.2430 328° Northwest 463 533 34,000  Level FlightAware
01:55AM 15.2120 -64.2830 328° Northwest 463 533 34,000  Level FlightAware
01:56AM 15.2740 -64.3230 328° Northwest 463 533 34,000  Level FlightAware
01:57AM 15.3360 -64.3630 328° Northwest 463 533 34,000  Level FlightAware
01:57AM 15.3970 -64.4030 328° Northwest 463 533 34,000  Level FlightAware
01:58AM 15.4750 -64.4530 328° Northwest 463 533 34,000  Level FlightAware
01:59AM 15.5360 -64.4930 328° Northwest 463 533 34,000  Level FlightAware
01:59AM 15.5980 -64.5330 328° Northwest 463 533 34,000  Level FlightAware
02:00AM 15.6600 -64.5730 328° Northwest 463 533 34,000  Level FlightAware
02:01AM 15.7370 -64.6230 328° Northwest 463 533 34,000  Level FlightAware
02:02AM 15.7990 -64.6630 328° Northwest 463 533 34,000  Level FlightAware
02:02AM 15.8610 -64.7030 328° Northwest 463 533 34,000  Level FlightAware
02:03AM 15.9220 -64.7440 327° Northwest 463 533 34,000  Level FlightAware
02:04AM 16.1667 -64.9167 327° Northwest 460 529 34,000  Level San Juan Center
02:06AM 16.3428 -65.0078 327° Northwest  Level FlightAware Approximate
02:07AM 16.5000 -65.1167 327° Northwest 460 529 34,000  Level San Juan Center
02:13AM 17.1560 -65.5600 327° Northwest 454 522 34,000  Level FlightAware
02:14AM 17.2270 -65.6060 328° Northwest 455 524 34,000  Level FlightAware
02:14AM 17.3060 -65.6570 328° Northwest 455 524 34,000  Level FlightAware
02:15AM 17.3780 -65.7040 328° Northwest 455 524 34,000  Level FlightAware
02:16AM 17.4610 -65.7570 329° Northwest 454 522 34,000  Level FlightAware
02:17AM 17.5330 -65.8040 328° Northwest 453 521 34,000  Level FlightAware
02:17AM 17.6000 -65.8470 329° Northwest 453 521 34,000  Level FlightAware
02:18AM 17.6800 -65.8990 328° Northwest 451 519 34,000  Level FlightAware
02:19AM 17.7550 -65.9480 328° Northwest 450 518 34,000  Level FlightAware
02:19AM 17.8330 -65.9980 329° Northwest 448 516 34,000  Level FlightAware
02:20AM 17.9050 -66.0450 328° Northwest 447 514 34,000  Level FlightAware
02:21AM 17.9750 -66.0900 329° Northwest 446 513 34,000  Level FlightAware
02:21AM 18.0560 -66.1430 328° Northwest 447 514 34,000  Level FlightAware
02:22AM 18.1250 -66.1880 328° Northwest 447 514 34,000  Level FlightAware
02:23AM 18.2040 -66.2390 328° Northwest 447 514 34,000  Level FlightAware
02:24AM 18.2730 -66.2850 328° Northwest 445 512 34,000  Level FlightAware
02:24AM 18.3440 -66.3310 328° Northwest 445 512 34,000  Level FlightAware
02:25AM 18.4230 -66.3830 328° Northwest 444 511 34,000  Level FlightAware
02:26AM 18.4940 -66.4290 328° Northwest 441 507 34,000  Level FlightAware
02:26AM 18.5600 -66.4770 325° Northwest 439 505 34,000  Level FlightAware
02:27AM 18.6340 -66.5300 326° Northwest 440 506 34,000  Level FlightAware
02:28AM 18.7020 -66.5790 326° Northwest 440 506 34,000  Level FlightAware
02:28AM 18.7810 -66.6350 326° Northwest 439 505 34,000  Level FlightAware
02:29AM 18.8490 -66.6830 326° Northwest 442 509 34,000  Level FlightAware
02:30AM 18.9160 -66.7310 326° Northwest 443 510 34,000  Level FlightAware
02:31AM 18.9910 -66.7850 326° Northwest 444 511 34,000  Level FlightAware
02:31AM 19.0600 -66.8340 326° Northwest 443 510 34,000  Level FlightAware
02:32AM 19.1380 -66.8890 326° Northwest 443 510 34,000  Level FlightAware
02:33AM 19.2120 -66.9420 326° Northwest 442 509 34,000  Level FlightAware
02:33AM 19.2790 -66.9910 325° Northwest 440 506 34,000  Level FlightAware
02:34AM 19.3560 -67.0460 326° Northwest 438 504 34,000  Level FlightAware
02:35AM 19.4240 -67.0940 326° Northwest 437 503 34,000  Level FlightAware
02:35AM 19.4920 -67.1430 326° Northwest 436 502 34,000  Level FlightAware
02:36AM 19.5640 -67.1960 325° Northwest 433 498 34,000  Level FlightAware
02:37AM 19.6240 -67.2390 326° Northwest 432 497 34,000  Level FlightAware
02:38AM 19.7010 -67.2940 326° Northwest 429 494 34,000  Level FlightAware
02:39AM 19.7930 -67.3610 326° Northwest 427 491 34,000  Level FlightAware
02:39AM 19.8440 -67.3990 325° Northwest 427 491 34,000  Level FlightAware
02:40AM 19.9360 -67.4650 326° Northwest 430 495 34,000  Level FlightAware
02:41AM 20.0030 -67.5130 326° Northwest 430 495 34,000  Level FlightAware
02:42AM 20.0910 -67.5770 326° Northwest 431 496 34,000  Level FlightAware
02:42AM 20.1630 -67.6290 326° Northwest 432 497 34,000  Level FlightAware
02:43AM 20.2230 -67.6740 325° Northwest 432 497 34,000  Level FlightAware
02:44AM 20.3000 -67.7290 326° Northwest 436 502 34,000  Level FlightAware
02:44AM 20.3600 -67.7730 325° Northwest 436 502 34,000  Level FlightAware
02:45AM 20.4400 -67.8310 326° Northwest 440 506 34,000  Level FlightAware
02:46AM 20.4920 -67.8700 325° Northwest 440 506 34,000  Level FlightAware
02:46AM 20.5630 -67.9230 325° Northwest 440 506 34,000  Level FlightAware
02:47AM 20.6200 -67.9660 325° Northwest 440 506 34,000  Level FlightAware
02:48AM 20.6770 -68.0080 325° Northwest 440 506 34,000  Level FlightAware
02:48AM 20.7330 -68.0510 324° Northwest 440 506 34,000  Level FlightAware
02:49AM 20.8040 -68.1040 325° Northwest 440 506 34,000  Level FlightAware
02:50AM 20.8610 -68.1460 325° Northwest 440 506 34,000  Level FlightAware
02:51AM 20.9180 -68.1890 325° Northwest 440 506 34,000  Level FlightAware
02:51AM 20.9740 -68.2310 325° Northwest 440 506 34,000  Level FlightAware
02:52AM 21.0310 -68.2740 325° Northwest 440 506 34,000  Level FlightAware
02:53AM 21.1020 -68.3270 325° Northwest 440 506 34,000  Level FlightAware
02:53AM 21.1590 -68.3690 326° Northwest 440 506 34,000  Level FlightAware
02:54AM 21.2150 -68.4120 324° Northwest 440 506 34,000  Level FlightAware
02:55AM 21.2720 -68.4550 325° Northwest 440 506 34,000  Level FlightAware
02:56AM 21.5881 -68.4533 325° Northwest 445 512 34,000  Level Miami Center
02:57AM 21.6994 -68.5064 336° Northwest 445 512 34,000  Level Miami Center
02:58AM 21.8144 -68.5572 338° Northwest 445 512 34,000  Level Miami Center
02:59AM 21.9319 -68.6103 337° Northwest 445 512 34,000  Level Miami Center
03:00AM 22.0494 -68.6633 337° Northwest 445 512 34,000  Level Miami Center
03:01AM 22.1628 -68.7144 337° Northwest 445 512 34,000  Level Miami Center
03:02AM 22.2844 -68.7717 336° Northwest 451 519 34,000  Level Miami Center
03:03AM 22.4039 -68.8250 338° Northwest 451 519 34,000  Level Miami Center
03:04AM 22.5239 -68.8825 336° Northwest 462 532 34,000  Level Miami Center
03:05AM 22.6475 -68.9378 338° Northwest 462 532 34,000  Level Miami Center
03:06AM 22.7672 -68.9936 337° Northwest 472 543 34,000  Level Miami Center
03:07AM 22.8847 -69.0472 337° Northwest 467 537 34,000  Level Miami Center
03:08AM 23.0064 -69.1028 337° Northwest 467 537 34,000  Level Miami Center
03:09AM 23.1261 -69.1608 336° Northwest 472 543 34,000  Level Miami Center
03:10AM 23.2519 -69.2189 337° Northwest 477 549 34,000  Level Miami Center
03:11AM 23.3697 -69.2750 336° Northwest 478 550 34,000  Level Miami Center
03:12AM 23.4892 -69.3289 338° Northwest 470 541 34,000  Level Miami Center
03:13AM 23.6111 -69.3897 335° Northwest 470 541 34,000  Level Miami Center
03:14AM 23.7328 -69.4458 337° Northwest 470 541 34,000  Level Miami Center
03:15AM 23.8522 -69.5000 337° Northwest 463 533 34,000  Level Miami Center
03:16AM 23.9764 -69.5653 334° Northwest 478 550 34,000  Level Miami Center
03:17AM 24.0978 -69.6153 339° North 473 544 34,000  Level Miami Center
03:18AM 24.2194 -69.6739 336° Northwest 468 539 34,000  Level Miami Center
03:19AM 24.3392 -69.7331 336° Northwest 468 539 34,000  Level Miami Center
03:20AM 24.4606 -69.7878 338° Northwest 467 537 34,000  Level Miami Center
03:21AM 24.5825 -69.8469 336° Northwest 467 537 34,000  Level Miami Center
03:22AM 24.6997 -69.9019 337° Northwest 466 536 34,000  Level Miami Center
03:23AM 24.8194 -69.9636 335° Northwest 466 536 34,000  Level Miami Center
03:24AM 24.9367 -70.0167 338° Northwest 466 536 34,000  Level Miami Center
03:24AM 24.8833 -70.0000 339° North 464 534 34,000  Level New York Oceanic (ODAPS)
03:25AM 25.0622 -70.0669 339° North 466 536 34,000  Level Miami Center
03:26AM 25.0000 -70.0500 348° North 470 541 34,000  Level New York Oceanic (ODAPS)
03:33AM 26.0406 -70.2927 348° North 470 541 34,000  Level FlightAware Transoceanic
03:34AM 26.1706 -70.3233 348° North 470 541 34,000  Level FlightAware Transoceanic
03:35AM 26.3007 -70.3540 348° North 470 541 34,000  Level FlightAware Transoceanic
03:36AM 26.4307 -70.3848 348° North 470 541 34,000  Level FlightAware Transoceanic
03:37AM 26.5607 -70.4156 348° North 470 541 34,000  Level FlightAware Transoceanic
03:37AM 26.6667 -70.4333 348° North 463 533 34,000  Level New York Oceanic (ODAPS)
03:38AM 26.6908 -70.4465 348° North 470 541 34,000  Level FlightAware Transoceanic
03:39AM 26.8208 -70.4775 348° North 470 541 34,000  Level FlightAware Transoceanic
03:40AM 26.9508 -70.5086 348° North 470 541 34,000  Level FlightAware Transoceanic
03:41AM 27.0808 -70.5397 348° North 470 541 34,000  Level FlightAware Transoceanic
03:42AM 27.2108 -70.5709 348° North 470 541 34,000  Level FlightAware Transoceanic
03:43AM 27.4114 -70.6142 348° North 463 533 34,000  Level FlightAware Transoceanic
03:44AM 27.5354 -70.6445 348° North 463 533 34,000  Level FlightAware Transoceanic
03:45AM 27.6595 -70.6750 348° North 463 533 34,000  Level FlightAware Transoceanic
03:46AM 27.7836 -70.7055 348° North 463 533 34,000  Level FlightAware Transoceanic
03:47AM 27.9077 -70.7361 348° North 463 533 34,000  Level FlightAware Transoceanic
03:48AM 28.0317 -70.7667 348° North 463 533 34,000  Level FlightAware Transoceanic
03:49AM 28.1558 -70.7975 348° North 463 533 34,000  Level FlightAware Transoceanic
03:50AM 28.2799 -70.8283 348° North 463 533 34,000  Level FlightAware Transoceanic
03:51AM 28.4039 -70.8591 348° North 463 533 34,000  Level FlightAware Transoceanic
03:51AM 28.4333 -70.8667 348° North 463 533 34,000  Level New York Oceanic (ODAPS)
03:52AM 28.5279 -70.8901 348° North 463 533 34,000  Level FlightAware Transoceanic
03:53AM 28.6520 -70.9211 348° North 463 533 34,000  Level FlightAware Transoceanic
03:54AM 28.7760 -70.9522 348° North 463 533 34,000  Level FlightAware Transoceanic
03:55AM 28.9000 -70.9833 348° North 463 533 34,000  Level FlightAware Transoceanic
03:55AM 28.8500 -70.9667 344° North 462 532 34,000  Level New York Oceanic (ODAPS)
03:56AM 29.0272 -71.0146 348° North 463 533 34,000  Level FlightAware Transoceanic
03:57AM 29.1545 -71.0459 348° North 463 533 34,000  Level FlightAware Transoceanic
03:58AM 29.2915 -71.0798 348° North 463 533 34,000  Level FlightAware Transoceanic
03:59AM 29.4220 -71.1121 348° North 463 533 34,000  Level FlightAware Transoceanic
04:00AM 29.5524 -71.1444 348° North 463 533 34,000  Level FlightAware Transoceanic
04:01AM 29.6633 -71.1720 348° North 462 532 34,000  Level FlightAware Transoceanic
04:02AM 29.7905 -71.2038 348° North 462 532 34,000  Level FlightAware Transoceanic
04:02AM 29.7333 -71.1833 348° North 460 529 34,000  Level New York Oceanic (ODAPS)
04:03AM 29.9177 -71.2356 348° North 462 532 34,000  Level FlightAware Transoceanic
04:04AM 30.0449 -71.2675 348° North 462 532 34,000  Level FlightAware Transoceanic
04:05AM 30.1721 -71.2994 348° North 462 532 34,000  Level FlightAware Transoceanic
04:05AM 30.1833 -71.3000 348° North 457 526 34,000  Level New York Oceanic (ODAPS)
04:06AM 30.2992 -71.3315 348° North 462 532 34,000  Level FlightAware Transoceanic
04:07AM 30.4264 -71.3636 348° North 462 532 34,000  Level FlightAware Transoceanic
04:08AM 30.5068 -71.3789 348° North 460 529 34,000  Level FlightAware Transoceanic
04:09AM 30.6356 -71.4118 348° North 460 529 34,000  Level FlightAware Transoceanic
04:10AM 30.7645 -71.4448 348° North 460 529 34,000  Level FlightAware Transoceanic
04:11AM 30.9440 -71.4935 348° North 457 526 34,000  Level FlightAware Transoceanic
04:12AM 31.0707 -71.5260 348° North 457 526 34,000  Level FlightAware Transoceanic
04:13AM 31.1974 -71.5587 348° North 457 526 34,000  Level FlightAware Transoceanic
04:14AM 31.3242 -71.5914 348° North 457 526 34,000  Level FlightAware Transoceanic
04:15AM 31.4509 -71.6242 348° North 457 526 34,000  Level FlightAware Transoceanic
04:16AM 31.5776 -71.6571 348° North 457 526 34,000  Level FlightAware Transoceanic
04:17AM 31.7043 -71.6901 347° North 457 526 34,000  Level FlightAware Transoceanic
04:18AM 31.8310 -71.7232 347° North 457 526 34,000  Level FlightAware Transoceanic
04:19AM 31.9576 -71.7563 347° North 457 526 34,000  Level FlightAware Transoceanic
04:19AM 31.9500 -71.7500 347° North 459 528 34,000  Level New York Oceanic (ODAPS)
04:20AM 32.0843 -71.7896 347° North 457 526 34,000  Level FlightAware Transoceanic
04:20AM 32.0500 -71.7833 348° North 460 529 34,000  Level New York Oceanic (ODAPS)
04:21AM 32.2110 -71.8230 347° North 457 526 34,000  Level FlightAware Transoceanic
04:22AM 32.3376 -71.8564 347° North 457 526 34,000  Level FlightAware Transoceanic
04:23AM 32.4643 -71.8899 347° North 457 526 34,000  Level FlightAware Transoceanic
04:24AM 32.5909 -71.9236 347° North 457 526 34,000  Level FlightAware Transoceanic
04:25AM 32.7128 -71.9533 347° North 459 528 34,000  Level FlightAware Transoceanic
04:26AM 32.8236 -71.9873 347° North 460 529 34,000  Level FlightAware Transoceanic
04:27AM 32.9525 -72.0216 347° North 460 529 34,000  Level FlightAware Transoceanic
04:27AM 33.0333 -72.0500 348° North 463 533 34,000  Level New York Oceanic (ODAPS)
04:28AM 33.0814 -72.0561 347° North 460 529 34,000  Level FlightAware Transoceanic
04:29AM 33.2103 -72.0906 347° North 460 529 34,000  Level FlightAware Transoceanic
04:30AM 33.3391 -72.1252 347° North 460 529 34,000  Level FlightAware Transoceanic
04:31AM 33.4680 -72.1600 347° North 460 529 34,000  Level FlightAware Transoceanic
04:32AM 33.5968 -72.1948 347° North 460 529 34,000  Level FlightAware Transoceanic
04:33AM 33.7257 -72.2298 347° North 460 529 34,000  Level FlightAware Transoceanic
04:33AM 33.7000 -72.2167 346° North 466 536 34,000  Level New York Oceanic (ODAPS)
04:34AM 33.8476 -72.2639 348° North 463 533 34,000  Level FlightAware Transoceanic
04:35AM 33.9833 -72.3000 355° North 463 533 34,000  Level FlightAware Transoceanic
04:35AM 33.9833 -72.3000 355° North 470 541 34,000  Level New York Oceanic (ODAPS)
04:36AM 34.1167 -72.3144 355° North 463 533 34,000  Level FlightAware Transoceanic
04:37AM 34.2500 -72.3289 355° North 463 533 34,000  Level FlightAware Transoceanic
04:38AM 34.3834 -72.3434 355° North 463 533 34,000  Level FlightAware Transoceanic
04:39AM 34.5167 -72.3580 355° North 466 536 34,000 900 Level FlightAware Transoceanic
04:39AM 33.9833 -72.3000 355° North 470 541 35,000  Climbing New York Oceanic (ODAPS)
04:40AM 34.6500 -72.3726 355° North 466 536 34,000 -120 Descending FlightAware Transoceanic
04:40AM 34.6700 -72.2117 355° North 482 555 34,900  Climbing New York Center
04:41AM 34.7833 -72.3872 355° North 470 541 34,000  Descending FlightAware Transoceanic
04:41AM 34.7667 -72.1578 25° Northeast 475 547 34,900  Climbing New York Center
04:42AM 34.9167 -72.4019 355° North 470 541 34,000  Descending FlightAware Transoceanic
04:42AM 34.9156 -72.0819 23° Northeast 485 558 34,900  Climbing New York Center
04:43AM 35.0500 -72.4167 North 470 541 34,000  Descending FlightAware Transoceanic
04:43AM 35.0517 -72.0489 11° North 492 566 34,900  Climbing New York Center
04:44AM 35.1780 -72.4152 North 470 541 34,000 60 Descending FlightAware Transoceanic
04:44AM 35.1789 -72.0458 North 457 526 35,000 660 Climbing New York Center
04:45AM 35.3081 -72.0606 355° North 457 526 35,000 -60 Level New York Center
04:46AM 35.4286 -72.0908 348° North 452 520 34,900  Descending New York Center
04:47AM 35.5578 -72.1133 352° North 452 520 35,000  Climbing New York Center
04:48AM 35.6825 -72.1464 348° North 452 520 34,900 -60 Descending New York Center
04:49AM 35.8094 -72.1717 351° North 452 520 34,900  Level New York Center
04:50AM 35.9281 -72.2047 347° North 447 514 35,000  Climbing New York Center
04:51AM 36.0550 -72.2303 351° North 452 520 34,900 -60 Descending New York Center
04:52AM 36.1861 -72.2586 350° North 459 528 34,900  Level New York Center
04:53AM 36.3067 -72.2919 347° North 459 528 35,000  Climbing New York Center
04:54AM 36.4333 -72.3178 351° North 459 528 34,900 -60 Descending New York Center
04:55AM 36.5603 -72.3486 349° North 453 521 34,900  Level New York Center
04:56AM 36.6850 -72.3772 350° North 459 528 34,900  Level New York Center
05:02AM 37.4497 -72.3838 350° North 471 542 35,000  Climbing FlightAware ADS-B
05:02AM 37.4892 -72.3754 10° North 481 554 35,000  Level FlightAware ADS-B
05:02AM 37.5062 -72.3688 17° North 486 559 35,000  Level FlightAware ADS-B
05:03AM 37.5702 -72.3354 22° Northeast 494 568 35,000  Level FlightAware ADS-B
05:03AM 37.6461 -72.2952 23° Northeast 493 567 35,000  Level FlightAware ADS-B
05:04AM 37.7101 -72.2621 22° Northeast 492 566 35,000  Level FlightAware ADS-B
05:04AM 37.7737 -72.2294 22° Northeast 492 566 35,000  Level FlightAware ADS-B
05:05AM 37.8412 -72.1950 22° Northeast 493 567 35,000  Level FlightAware ADS-B
05:05AM 37.9178 -72.1564 22° Northeast 492 566 35,000  Level FlightAware ADS-B
05:06AM 37.9818 -72.1245 21° North 493 567 35,000  Level FlightAware ADS-B
05:06AM 38.0476 -72.0942 20° North 495 570 35,000  Level FlightAware ADS-B
05:07AM 38.0664 -72.0891 12° North 488 562 35,000  Level FlightAware ADS-B
05:07AM 38.0843 -72.0862 North 484 557 35,000  Level FlightAware ADS-B
05:07AM 38.1102 -72.0854 North 478 550 35,000  Level FlightAware ADS-B
05:07AM 38.1276 -72.0872 355° North 473 544 35,000  Level FlightAware ADS-B
05:07AM 38.1422 -72.0900 351° North 470 541 35,000  Level FlightAware ADS-B
05:08AM 38.1998 -72.1095 345° North 459 528 35,000  Level FlightAware ADS-B
05:08AM 38.2596 -72.1386 339° North 453 521 35,000  Level FlightAware ADS-B
05:09AM 38.3172 -72.1729 335° Northwest 449 517 35,000  Level FlightAware ADS-B
05:09AM 38.3752 -72.2106 333° Northwest 446 513 35,000  Level FlightAware ADS-B
05:10AM 38.4327 -72.2490 332° Northwest 446 513 35,000  Level FlightAware ADS-B
05:10AM 38.4878 -72.2859 332° Northwest 444 511 35,000  Level FlightAware ADS-B
05:11AM 38.5432 -72.3229 332° Northwest 444 511 35,000  Level FlightAware ADS-B
05:11AM 38.6003 -72.3611 332° Northwest 444 511 35,000  Level FlightAware ADS-B
05:12AM 38.6548 -72.3978 332° Northwest 445 512 35,000  Level FlightAware ADS-B
05:12AM 38.7106 -72.4352 332° Northwest 446 513 35,000  Level FlightAware ADS-B
05:13AM 38.7661 -72.4725 332° Northwest 446 513 35,000  Level FlightAware ADS-B
05:13AM 38.8210 -72.5096 332° Northwest 446 513 35,000  Level FlightAware ADS-B
05:14AM 38.8763 -72.5471 332° Northwest 447 514 35,000  Level FlightAware ADS-B
05:14AM 38.9325 -72.5851 332° Northwest 446 513 35,000  Level FlightAware ADS-B
05:15AM 38.9839 -72.6201 332° Northwest 446 513 35,000  Level FlightAware ADS-B
05:15AM 39.0107 -72.6407 329° Northwest 445 512 35,000 -180 Level FlightAware ADS-B
05:15AM 39.0517 -72.6781 325° Northwest 442 509 34,900 -540 Descending FlightAware ADS-B
05:16AM 39.0676 -72.6947 321° Northwest 440 506 34,700 -2,040 Descending FlightAware ADS-B
05:16AM 39.0892 -72.7196 318° Northwest 439 505 34,100 -2,580 Descending FlightAware ADS-B
05:16AM 39.1337 -72.7733 317° Northwest 431 496 32,800 -3,000 Descending FlightAware ADS-B
05:17AM 39.1775 -72.8267 317° Northwest 431 496 31,100 -3,240 Descending FlightAware ADS-B
05:17AM 39.2208 -72.8795 317° Northwest 420 483 29,600 -3,000 Descending FlightAware ADS-B
05:18AM 39.2628 -72.9307 317° Northwest 410 472 28,100 -3,180 Descending FlightAware ADS-B
05:18AM 39.3038 -72.9804 317° Northwest 398 458 26,400 -3,360 Descending FlightAware ADS-B
05:19AM 39.3437 -73.0292 317° Northwest 388 447 24,700 -3,420 Descending FlightAware ADS-B
05:19AM 39.3824 -73.0766 317° Northwest 377 434 23,000 -3,600 Descending FlightAware ADS-B
05:20AM 39.4207 -73.1238 316° Northwest 368 423 21,100 -3,960 Descending FlightAware ADS-B
05:20AM 39.4576 -73.1693 316° Northwest 363 418 19,000 -4,320 Descending FlightAware ADS-B
05:21AM 39.4942 -73.2138 317° Northwest 361 415 16,800 -4,020 Descending FlightAware ADS-B
05:21AM 39.5322 -73.2608 316° Northwest 356 410 14,900 -2,880 Descending FlightAware ADS-B
05:22AM 39.5705 -73.3078 317° Northwest 365 420 13,800 -1,140 Descending FlightAware ADS-B
05:22AM 39.6089 -73.3548 317° Northwest 353 406 13,700 -720 Descending FlightAware ADS-B
05:23AM 39.6510 -73.4060 317° Northwest 350 403 13,000 -1,440 Descending FlightAware
05:24AM 39.6970 -73.4630 316° Northwest 347 399 11,900 -1,200 Descending FlightAware
05:24AM 39.7470 -73.5250 316° Northwest 339 390 11,300 -840 Descending FlightAware
05:25AM 39.7879 -73.5757 316° Northwest 329 379 10,800 -780 Descending FlightAware ADS-B
05:26AM 39.8202 -73.6157 316° Northwest 312 359 10,500 -720 Descending FlightAware ADS-B
05:26AM 39.8519 -73.6550 316° Northwest 296 341 10,100 -780 Descending FlightAware ADS-B
05:26AM 39.8678 -73.6748 316° Northwest 289 333 9,900 -600 Descending FlightAware ADS-B
05:27AM 39.8821 -73.6925 316° Northwest 282 325 9,800 -600 Descending FlightAware ADS-B
05:27AM 39.8973 -73.7113 317° Northwest 279 321 9,600 -1,020 Descending FlightAware ADS-B
05:27AM 39.9119 -73.7296 316° Northwest 279 321 9,300 -1,140 Descending FlightAware ADS-B
05:27AM 39.9284 -73.7502 316° Northwest 285 328 9,000 -600 Descending FlightAware ADS-B
05:28AM 39.9543 -73.7784 320° Northwest 286 329 8,900 -360 Descending FlightAware ADS-B
05:28AM 39.9695 -73.7856 340° North 282 325 8,800 -480 Descending FlightAware ADS-B
05:28AM 39.9887 -73.7921 345° North 281 323 8,700 -240 Descending FlightAware ADS-B
05:29AM 40.0082 -73.7988 345° North 283 326 8,700  Level FlightAware ADS-B
05:29AM 40.0274 -73.8056 345° North 282 325 8,700  Level FlightAware ADS-B
05:29AM 40.0467 -73.8123 345° North 281 323 8,700 -600 Level FlightAware ADS-B
05:29AM 40.0665 -73.8193 345° North 280 322 8,400 -1,380 Descending FlightAware ADS-B
05:30AM 40.0853 -73.8260 345° North 281 323 8,000 -1,380 Descending FlightAware ADS-B
05:30AM 40.1052 -73.8330 345° North 283 326 7,700 -1,380 Descending FlightAware ADS-B
05:30AM 40.1247 -73.8397 345° North 283 326 7,300 -1,200 Descending FlightAware ADS-B
05:30AM 40.1438 -73.8463 345° North 281 323 7,100 -1,020 Descending FlightAware ADS-B
05:31AM 40.1635 -73.8532 345° North 280 322 6,800 -1,380 Descending FlightAware ADS-B
05:31AM 40.1824 -73.8599 345° North 280 322 6,400 -1,260 Descending FlightAware ADS-B
05:31AM 40.1999 -73.8661 345° North 278 320 6,200 -1,080 Descending FlightAware ADS-B
05:31AM 40.2184 -73.8728 345° North 276 318 5,900 -1,200 Descending FlightAware ADS-B
05:32AM 40.2374 -73.8797 345° North 275 316 5,600 -1,080 Descending FlightAware ADS-B
05:32AM 40.2612 -73.8879 345° North 273 314 5,300 -1,080 Descending FlightAware ADS-B
05:32AM 40.2792 -73.8942 345° North 267 307 5,000 -1,500 Descending FlightAware ADS-B
05:32AM 40.2993 -73.9011 345° North 265 305 4,500 -1,740 Descending FlightAware ADS-B
05:33AM 40.3177 -73.9075 345° North 262 302 4,100 -1,380 Descending FlightAware ADS-B
05:33AM 40.3356 -73.9137 345° North 257 296 3,800 -1,140 Descending FlightAware ADS-B
05:33AM 40.3428 -73.9163 345° North 252 290 3,700 -1,380 Descending FlightAware ADS-B
05:33AM 40.3463 -73.9179 341° North 250 288 3,600 -720 Descending FlightAware ADS-B
05:33AM 40.3521 -73.9213 336° Northwest 246 283 3,600 -600 Level FlightAware ADS-B
05:33AM 40.3563 -73.9242 332° Northwest 242 278 3,500 -1,140 Descending FlightAware ADS-B
05:33AM 40.3625 -73.9291 329° Northwest 234 269 3,400 -1,320 Descending FlightAware ADS-B
05:34AM 40.3728 -73.9379 327° Northwest 224 258 3,100 -1,440 Descending FlightAware ADS-B
05:34AM 40.3843 -73.9479 326° Northwest 214 246 2,800 -1,200 Descending FlightAware ADS-B
05:34AM 40.3937 -73.9556 328° Northwest 202 232 2,600 -1,140 Descending FlightAware ADS-B
05:34AM 40.3974 -73.9574 340° North 195 224 2,500 -1,500 Descending FlightAware ADS-B
05:34AM 40.4012 -73.9582 351° North 189 217 2,400 -1,500 Descending FlightAware ADS-B
05:34AM 40.4046 -73.9580 North 180 207 2,300 -1,500 Descending FlightAware ADS-B
05:34AM 40.4072 -73.9570 16° North 176 203 2,200 -780 Descending FlightAware ADS-B
05:34AM 40.4101 -73.9550 28° Northeast 171 197 2,200 -1,080 Level FlightAware ADS-B
05:35AM 40.4162 -73.9433 56° Northeast 167 192 1,900 -1,080 Descending FlightAware ADS-B
05:35AM 40.4219 -73.9304 60° Northeast 174 200 1,700 -480 Descending FlightAware ADS-B
05:35AM 40.4294 -73.9226 38° Northeast 183 211 1,700  Level FlightAware ADS-B
05:36AM 40.4550 -73.9030 30° Northeast 181 208 1,700  Level FlightAware
05:36AM 40.4760 -73.8870 30° Northeast 180 207 1,700  Level FlightAware
05:36AM 40.4910 -73.8750 31° Northeast 182 209 1,700  Level FlightAware
05:37AM 40.5100 -73.8610 29° Northeast 181 208 1,700  Level FlightAware
05:37AM 40.5310 -73.8440 32° Northeast 180 207 1,700 -300 Level FlightAware
05:38AM 40.5520 -73.8280 30° Northeast 169 194 1,400 -660 Descending FlightAware
05:38AM 40.5680 -73.8150 32° Northeast 152 175 1,100 -780 Descending FlightAware
05:39AM 40.5850 -73.8020 30° Northeast 143 165 700 -780 Descending FlightAware
05:39AM 40.5990 -73.7910 31° Northeast 142 163 400 -720 Descending FlightAware
05:40AM 40.6160 -73.7780 30° Northeast 139 160 -840 Descending FlightAware
05:40AM 40.6330 -73.7640 32° Northeast 134 154  Level FlightAware